Time;durP1;ratioP1;P1;durP2;ratioP2;P2;SDS_P1;SDS_P2;PMS_P1;PMS_P2;Temp;Humidity;BMP_temperature;BMP_pressure;BME280_temperature;BME280_humidity;BME280_pressure;Samples;Min_cycle;Max_cycle;Signal;HPM_P1;HPM_P2
2022/09/25 00:03:15;;;;;;;14.00;7.72;;;;;;;13.23;100.00;99391.81;12208130;19;20010;-79
2022/09/25 00:07:17;;;;;;;14.77;7.32;;;;;;;13.21;100.00;99389.34;12218947;19;20007;-78
2022/09/25 00:11:26;;;;;;;10.95;6.95;;;;;;;13.21;100.00;99394.88;12200181;19;20003;-80
2022/09/25 00:15:28;;;;;;;14.90;7.35;;;;;;;13.23;100.00;99402.88;12213923;19;20007;-81
2022/09/25 00:23:49;;;;;;;11.73;7.07;;;;;;;13.23;100.00;99400.09;12196200;19;20013;-79
2022/09/25 00:27:52;;;;;;;12.43;7.78;;;;;;;13.23;100.00;99392.63;12215958;19;20018;-79
2022/09/25 00:31:54;;;;;;;13.90;7.70;;;;;;;13.25;100.00;99392.41;12196592;19;20026;-79
2022/09/25 00:36:03;;;;;;;15.23;8.05;;;;;;;13.27;100.00;99390.19;12216327;19;20030;-79
2022/09/25 00:40:06;;;;;;;16.42;9.15;;;;;;;13.29;100.00;99396.25;12221688;19;20006;-79
2022/09/25 00:44:45;;;;;;;18.73;9.23;;;;;;;13.27;100.00;99394.91;12197687;19;20455;-77
2022/09/25 00:49:08;;;;;;;16.55;10.30;;;;;;;13.26;100.00;99390.47;12217683;19;20066;-79
2022/09/25 00:53:20;;;;;;;15.63;9.27;;;;;;;13.24;100.00;99396.25;12197046;19;20011;-79
2022/09/25 00:57:29;;;;;;;14.98;8.63;;;;;;;13.25;100.00;99391.53;12219661;19;20019;-79
2022/09/25 01:01:31;;;;;;;16.25;8.90;;;;;;;13.27;100.00;99389.38;12218762;19;20711;-79
2022/09/25 01:05:36;;;;;;;16.73;9.73;;;;;;;13.26;100.00;99382.97;12198350;19;20007;-79
2022/09/25 01:09:37;;;;;;;18.58;9.90;;;;;;;13.30;100.00;99394.34;12216711;19;20007;-78
2022/09/25 01:13:40;;;;;;;16.85;9.23;;;;;;;13.32;100.00;99387.41;12206593;19;20011;-80
2022/09/25 01:17:52;;;;;;;18.98;9.85;;;;;;;13.31;100.00;99390.47;12217311;19;20070;-78
2022/09/25 01:22:12;;;;;;;21.15;11.48;;;;;;;13.31;100.00;99384.94;12217270;19;20014;-80
2022/09/25 01:26:23;;;;;;;24.33;10.90;;;;;;;13.32;100.00;99383.81;12195520;19;20011;-80
2022/09/25 01:30:25;;;;;;;23.08;11.98;;;;;;;13.33;100.00;99379.94;12215803;19;20078;-79
2022/09/25 01:34:42;;;;;;;21.13;11.75;;;;;;;13.34;100.00;99385.19;12216150;19;20492;-80
2022/09/25 01:38:52;;;;;;;24.77;12.50;;;;;;;13.37;100.00;99378.28;12192898;19;20026;-79
2022/09/25 01:43:01;;;;;;;24.00;13.55;;;;;;;13.37;100.00;99378.28;12213624;19;20015;-79
2022/09/25 01:47:10;;;;;;;28.23;13.50;;;;;;;13.32;100.00;99379.09;12193212;19;20093;-80
2022/09/25 01:51:28;;;;;;;30.30;14.20;;;;;;;13.26;100.00;99374.69;12212588;19;20467;-79
2022/09/25 01:55:37;;;;;;;30.75;14.43;;;;;;;13.28;100.00;99377.19;12212565;19;20348;-79
2022/09/25 01:59:51;;;;;;;31.65;14.23;;;;;;;13.25;100.00;99369.41;12193046;19;20006;-80
2022/09/25 02:04:18;;;;;;;29.88;14.80;;;;;;;13.26;100.00;99371.09;12208920;19;21726;-79
2022/09/25 02:08:25;;;;;;;32.70;15.20;;;;;;;13.26;100.00;99365.56;12187219;19;20070;-79
2022/09/25 02:12:35;;;;;;;31.65;15.70;;;;;;;13.27;100.00;99358.94;12210287;19;20687;-78
2022/09/25 02:16:42;;;;;;;36.15;16.15;;;;;;;13.23;100.00;99359.44;12209572;19;20010;-78
2022/09/25 02:21:04;;;;;;;35.58;16.25;;;;;;;13.20;100.00;99357.22;12190698;19;20018;-79
2022/09/25 02:25:14;;;;;;;33.78;16.30;;;;;;;13.21;100.00;99358.91;12204505;19;20011;-78
2022/09/25 02:29:16;;;;;;;32.40;16.38;;;;;;;13.21;100.00;99355.31;12185462;19;20002;-78
2022/09/25 02:33:18;;;;;;;35.50;16.10;;;;;;;13.22;100.00;99366.09;12204377;19;20038;-79
2022/09/25 02:37:19;;;;;;;34.30;16.40;;;;;;;13.21;100.00;99364.44;12209619;19;20002;-80
2022/09/25 02:41:52;;;;;;;32.70;15.98;;;;;;;13.23;100.00;99364.97;12189279;19;20417;-80
2022/09/25 02:46:08;;;;;;;38.15;16.40;;;;;;;13.24;100.00;99363.06;12208762;19;20010;-78
2022/09/25 02:50:28;;;;;;;37.38;17.10;;;;;;;13.29;100.00;99359.47;12189462;19;20053;-79
2022/09/25 02:54:37;;;;;;;39.88;17.17;;;;;;;13.26;100.00;99354.50;12209016;19;20306;-78
2022/09/25 02:58:43;;;;;;;36.65;16.60;;;;;;;13.22;100.00;99349.47;12201745;19;20074;-79
2022/09/25 03:02:45;;;;;;;34.80;16.02;;;;;;;13.21;100.00;99353.38;12212137;19;20006;-79
2022/09/25 03:06:53;;;;;;;29.52;14.98;;;;;;;13.22;100.00;99348.66;12209702;19;20014;-79
2022/09/25 03:10:57;;;;;;;35.53;15.95;;;;;;;13.20;100.00;99346.16;12192620;19;20483;-79
2022/09/25 03:14:58;;;;;;;30.77;15.45;;;;;;;13.23;100.00;99344.78;12213076;19;20006;-79
2022/09/25 03:19:01;;;;;;;29.40;14.02;;;;;;;13.22;100.00;99352.25;12213543;19;20028;-79
2022/09/25 03:23:02;;;;;;;30.13;14.68;;;;;;;13.22;100.00;99348.66;12189687;19;20013;-80
2022/09/25 03:27:04;;;;;;;32.67;16.25;;;;;;;13.21;100.00;99358.06;12207916;19;20502;-79
2022/09/25 03:31:09;;;;;;;29.08;14.48;;;;;;;13.21;100.00;99358.06;12209652;19;20014;-79
2022/09/25 03:35:11;;;;;;;27.48;14.38;;;;;;;13.19;100.00;99355.56;12185179;19;20010;-78
2022/09/25 03:39:16;;;;;;;31.77;15.48;;;;;;;13.21;100.00;99358.91;12215064;19;20011;-78
2022/09/25 03:43:18;;;;;;;33.17;15.00;;;;;;;13.23;100.00;99355.84;12220262;19;20117;-78
2022/09/25 03:47:19;;;;;;;29.58;16.05;;;;;;;13.26;100.00;99354.50;12200033;19;20010;-78
2022/09/25 03:51:22;;;;;;;34.28;16.17;;;;;;;13.29;100.00;99353.94;12221435;19;20029;-78
2022/09/25 03:55:24;;;;;;;31.75;14.63;;;;;;;13.29;100.00;99353.94;12219740;19;20015;-78
2022/09/25 03:59:26;;;;;;;36.87;15.83;;;;;;;13.31;100.00;99357.25;12202417;19;20119;-77
2022/09/25 04:03:29;;;;;;;34.88;15.82;;;;;;;13.31;100.00;99351.72;12216604;19;20129;-79
2022/09/25 04:07:31;;;;;;;34.58;16.85;;;;;;;13.31;100.00;99351.72;12215688;19;20066;-78
2022/09/25 04:11:33;;;;;;;34.30;15.93;;;;;;;13.32;100.00;99354.19;12194373;19;20006;-78
2022/09/25 04:15:35;;;;;;;39.15;17.00;;;;;;;13.35;100.00;99355.56;12216683;19;20034;-80
2022/09/25 04:19:37;;;;;;;38.42;17.65;;;;;;;13.35;100.00;99352.81;12217236;19;20475;-79
2022/09/25 04:23:39;;;;;;;33.88;15.55;;;;;;;13.35;100.00;99355.56;12194443;19;20010;-78
2022/09/25 04:27:44;;;;;;;35.78;17.00;;;;;;;13.36;100.00;99354.50;12214711;19;20069;-79
2022/09/25 04:33:44;;;;;;;43.05;17.02;;;;;;;13.34;100.00;99353.94;12191120;19;20025;-80
2022/09/25 04:36:10;;;;;;;42.78;16.88;;;;;;;13.35;100.00;99359.16;12208929;19;20006;-79
2022/09/25 04:40:12;;;;;;;44.30;18.30;;;;;;;13.37;100.00;99354.19;12214607;19;20018;-78
2022/09/25 04:44:16;;;;;;;49.20;20.48;;;;;;;13.35;100.00;99359.16;12187423;19;20011;-79
2022/09/25 04:48:17;;;;;;;62.67;24.50;;;;;;;13.35;100.00;99361.94;12210782;19;20439;-80
2022/09/25 04:52:19;;;;;;;63.28;24.60;;;;;;;13.35;100.00;99361.13;12210200;19;20356;-78
2022/09/25 04:56:21;;;;;;;68.63;24.63;;;;;;;13.34;100.00;99363.06;12187376;19;20011;-79
2022/09/25 05:00:25;;;;;;;69.40;24.17;;;;;;;13.35;100.00;99361.94;12078313;19;2756538;-79
2022/09/25 05:04:26;;;;;;;67.43;25.55;;;;;;;13.38;100.00;99368.84;12213384;19;20042;-79
2022/09/25 05:08:28;;;;;;;79.68;25.85;;;;;;;13.36;100.00;99365.56;12190832;19;20003;-80
2022/09/25 05:12:29;;;;;;;79.15;26.02;;;;;;;13.36;100.00;99369.16;12213189;19;20034;-78
2022/09/25 05:16:31;;;;;;;91.85;30.08;;;;;;;13.33;100.00;99363.34;12215134;19;20018;-80
2022/09/25 05:20:36;;;;;;;95.35;29.52;;;;;;;13.33;100.00;99363.34;12193302;19;20010;-79
2022/09/25 05:24:38;;;;;;;85.07;29.60;;;;;;;13.33;100.00;99360.59;12213115;19;20006;-80
2022/09/25 05:28:39;;;;;;;96.38;30.27;;;;;;;13.38;100.00;99363.31;12200637;19;20010;-80
2022/09/25 05:32:48;;;;;;;95.15;31.33;;;;;;;13.42;100.00;99356.13;12212233;19;20011;-79
2022/09/25 05:36:51;;;;;;;87.50;31.50;;;;;;;13.45;100.00;99361.13;12210674;19;20463;-80
2022/09/25 05:40:52;;;;;;;77.05;28.02;;;;;;;13.48;100.00;99357.78;12194343;19;20009;-80
2022/09/25 05:44:54;;;;;;;82.03;29.45;;;;;;;13.50;100.00;99358.31;12212050;19;20006;-79
2022/09/25 05:48:56;;;;;;;79.05;28.80;;;;;;;13.48;100.00;99357.78;12212041;19;20018;-80
2022/09/25 05:53:00;;;;;;;79.53;28.20;;;;;;;13.49;100.00;99359.44;12190579;19;20104;-79
2022/09/25 05:57:01;;;;;;;79.70;27.15;;;;;;;13.50;100.00;99366.63;12211152;19;20013;-80
2022/09/25 06:01:05;;;;;;;73.53;26.55;;;;;;;13.54;100.00;99366.91;12216621;19;20039;-80
2022/09/25 06:05:07;;;;;;;76.03;26.38;;;;;;;13.49;100.00;99359.44;12189483;19;20006;-80
2022/09/25 06:09:09;;;;;;;67.53;25.38;;;;;;;13.45;100.00;99361.94;12212759;19;20010;-80
2022/09/25 06:13:10;;;;;;;62.65;24.85;;;;;;;13.42;100.00;99364.44;12214578;19;20007;-78
2022/09/25 06:17:12;;;;;;;68.72;25.52;;;;;;;13.36;100.00;99371.91;12188731;19;20071;-79
2022/09/25 06:21:15;;;;;;;74.63;27.08;;;;;;;13.42;100.00;99369.97;12213982;19;20010;-79
2022/09/25 06:25:18;;;;;;;74.10;26.55;;;;;;;13.41;100.00;99368.28;12210566;19;20070;-79
2022/09/25 06:29:19;;;;;;;67.03;25.30;;;;;;;13.41;100.00;99373.84;12191619;19;20018;-79
2022/09/25 06:33:21;;;;;;;64.07;25.95;;;;;;;13.41;100.00;99373.84;12210184;19;20081;-79
2022/09/25 06:37:23;;;;;;;60.28;24.83;;;;;;;13.38;100.00;99377.97;12210165;19;20014;-80
2022/09/25 06:41:24;;;;;;;63.70;24.17;;;;;;;13.37;100.00;99381.03;12215110;19;20065;-80
2022/09/25 06:45:30;;;;;;;55.25;22.83;;;;;;;13.35;100.00;99380.47;12234971;19;20755;-81
2022/09/25 06:49:32;;;;;;;54.95;22.85;;;;;;;13.37;100.00;99381.88;12229649;19;20030;-82
2022/09/25 06:53:34;;;;;;;54.47;23.27;;;;;;;13.37;100.00;99384.63;12201071;19;20011;-82
2022/09/25 06:57:36;;;;;;;62.55;24.25;;;;;;;13.37;100.00;99389.34;12222774;19;20010;-83
2022/09/25 07:01:38;;;;;;;62.40;23.90;;;;;;;13.38;100.00;99379.94;12222671;19;20002;-80
2022/09/25 07:05:41;;;;;;;55.25;22.58;;;;;;;13.39;100.00;99384.38;12214776;19;20017;-81
2022/09/25 07:09:43;;;;;;;54.22;22.05;;;;;;;13.39;100.00;99389.91;12211455;19;20081;-81
2022/09/25 07:13:45;;;;;;;52.20;22.35;;;;;;;13.41;100.00;99384.91;12195794;19;20046;-81
2022/09/25 07:17:46;;;;;;;48.63;21.40;;;;;;;13.41;100.00;99385.75;12210378;19;20006;-81
2022/09/25 07:21:48;;;;;;;45.53;20.83;;;;;;;13.43;100.00;99379.94;12193764;19;20014;-79
2022/09/25 07:25:49;;;;;;;46.10;21.05;;;;;;;13.45;100.00;99386.84;12188578;19;20006;-79
2022/09/25 07:29:51;;;;;;;45.30;19.80;;;;;;;13.48;100.00;99390.16;12213389;19;20054;-80
2022/09/25 07:33:53;;;;;;;53.33;21.63;;;;;;;13.48;100.00;99388.22;12214928;19;20015;-81
2022/09/25 07:37:56;;;;;;;51.00;21.63;;;;;;;13.50;100.00;99388.75;12192447;19;20942;-82
2022/09/25 07:41:58;;;;;;;47.10;21.80;;;;;;;13.52;100.00;99382.97;12213185;19;20034;-81
2022/09/25 07:46:00;;;;;;;47.05;19.30;;;;;;;13.57;100.00;99386.56;12211269;19;20389;-81
2022/09/25 07:50:02;;;;;;;44.58;19.52;;;;;;;13.61;100.00;99387.63;12183265;19;20507;-81
2022/09/25 07:54:04;;;;;;;45.13;19.23;;;;;;;13.62;100.00;99392.09;12213268;19;20018;-80
2022/09/25 07:58:05;;;;;;;49.47;19.98;;;;;;;13.62;100.00;99391.22;12213041;19;20006;-82
2022/09/25 08:02:08;;;;;;;42.67;19.13;;;;;;;13.68;100.00;99390.09;12195885;19;20511;-78
2022/09/25 08:06:12;;;;;;;43.03;19.83;;;;;;;13.75;100.00;99398.16;12212595;19;20026;-81
2022/09/25 08:10:14;;;;;;;37.33;18.98;;;;;;;13.79;100.00;99396.47;12215901;19;20010;-80
2022/09/25 08:14:15;;;;;;;39.17;18.23;;;;;;;13.85;100.00;99398.94;12188858;19;20010;-81
2022/09/25 08:18:17;;;;;;;38.40;17.38;;;;;;;13.95;100.00;99398.09;12210777;19;20007;-81
2022/09/25 08:22:19;;;;;;;36.80;16.98;;;;;;;13.95;100.00;99403.63;12209564;19;20003;-82
2022/09/25 08:26:22;;;;;;;39.30;18.33;;;;;;;13.98;100.00;99388.34;12197323;19;20014;-80
2022/09/25 08:30:23;;;;;;;34.95;17.77;;;;;;;14.03;100.00;99397.47;12223889;19;20018;-79
2022/09/25 08:34:26;;;;;;;32.03;15.40;;;;;;;14.08;100.00;99386.38;12209042;19;20010;-80
2022/09/25 08:38:44;;;;;;;32.33;16.52;;;;;;;14.14;100.00;99393.56;12201340;19;20015;-80
2022/09/25 08:42:50;;;;;;;29.87;15.57;;;;;;;14.21;100.00;99396.03;12245683;19;20054;-79
2022/09/25 08:51:27;;;;;;;30.77;16.60;;;;;;;14.33;100.00;99390.97;12263570;19;20105;-80
2022/09/25 09:00:00;;;;;;;29.63;15.52;;;;;;;14.39;100.00;99397.31;12223482;19;20114;-81
2022/09/25 09:04:11;;;;;;;28.35;15.63;;;;;;;14.39;100.00;99397.31;12226110;19;20104;-81
2022/09/25 09:08:16;;;;;;;26.33;14.38;;;;;;;14.51;100.00;99388.66;12196083;19;20019;-82
2022/09/25 09:12:26;;;;;;;27.33;15.32;;;;;;;14.72;100.00;99392.16;12218992;19;20126;-81
2022/09/25 09:16:48;;;;;;;24.35;14.50;;;;;;;14.82;100.00;99400.44;12219773;19;20011;-82
2022/09/25 09:20:52;;;;;;;33.65;16.65;;;;;;;14.72;100.00;99409.66;12195132;19;20038;-82
2022/09/25 09:25:02;;;;;;;31.42;17.13;;;;;;;14.56;100.00;99395.03;12218106;19;20015;-82
2022/09/25 09:29:35;;;;;;;30.60;15.90;;;;;;;14.51;100.00;99403.38;12195031;19;20018;-81
2022/09/25 09:33:46;;;;;;;30.13;16.57;;;;;;;14.61;100.00;99396.16;12214812;19;20013;-81
2022/09/25 09:38:10;;;;;;;27.25;15.10;;;;;;;14.81;100.00;99396.84;12190334;19;20010;-81
2022/09/25 09:42:31;;;;;;;29.70;15.13;;;;;;;14.84;100.00;99400.97;12214687;19;20653;-80
2022/09/25 09:46:41;;;;;;;24.88;14.23;;;;;;;14.88;100.00;99401.22;12215500;19;20053;-81
2022/09/25 09:50:59;;;;;;;25.83;14.25;;;;;;;14.93;100.00;99399.25;12199141;19;20014;-81
2022/09/25 09:55:15;;;;;;;25.05;14.63;;;;;;;14.98;100.00;99395.59;12220229;19;20007;-81
2022/09/25 09:59:26;;;;;;;25.95;15.25;;;;;;;15.01;100.00;99401.41;12197811;19;20010;-81
2022/09/25 10:03:37;;;;;;;25.30;15.05;;;;;;;15.00;100.00;99405.28;12220679;19;20451;-81
2022/09/25 10:07:50;;;;;;;27.30;15.15;;;;;;;14.97;100.00;99396.72;12198263;19;20017;-82
2022/09/25 10:12:00;;;;;;;25.10;15.00;;;;;;;15.04;100.00;99395.25;12225135;19;20038;-81
2022/09/25 10:16:10;;;;;;;19.90;13.88;;;;;;;15.36;100.00;99390.28;12235829;19;20017;-81
2022/09/25 10:20:25;;;;;;;26.10;15.93;;;;;;;15.70;100.00;99387.47;12210416;19;20011;-81
2022/09/25 10:24:53;;;;;;;23.42;14.63;;;;;;;15.79;100.00;99382.94;12227886;19;20153;-81
2022/09/25 10:29:01;;;;;;;21.52;13.70;;;;;;;15.83;100.00;99370.13;12209515;19;20038;-82
2022/09/25 10:33:14;;;;;;;23.52;14.88;;;;;;;15.73;100.00;99378.56;12227421;19;20378;-81
2022/09/25 10:37:21;;;;;;;22.05;13.23;;;;;;;15.67;100.00;99377.78;12225268;19;20014;-83
2022/09/25 10:41:23;;;;;;;17.77;12.20;;;;;;;15.77;100.00;99382.41;12202622;19;20014;-82
2022/09/25 10:45:28;;;;;;;19.45;11.40;;;;;;;15.88;100.00;99381.19;12230187;19;20070;-82
2022/09/25 10:54:09;;;;;;;16.83;11.57;;;;;;;16.33;100.00;99387.28;12198094;19;20007;-81
2022/09/25 10:58:21;;;;;;;18.20;11.35;;;;;;;16.43;100.00;99397.44;12220629;19;20474;-82
2022/09/25 11:02:35;;;;;;;16.70;11.07;;;;;;;16.53;100.00;99394.50;12199981;19;20340;-82
2022/09/25 11:06:44;;;;;;;17.13;10.10;;;;;;;16.50;100.00;99397.06;12221994;19;20010;-81
2022/09/25 11:10:51;;;;;;;15.27;10.43;;;;;;;16.34;100.00;99396.47;12201353;19;20010;-81
2022/09/25 11:14:56;;;;;;;16.85;11.07;;;;;;;16.18;100.00;99393.03;12224105;19;20021;-82
2022/09/25 11:19:10;;;;;;;19.88;11.18;;;;;;;16.11;100.00;99384.22;12224264;19;20663;-82
2022/09/25 11:23:28;;;;;;;19.27;11.60;;;;;;;16.08;100.00;99384.81;12205995;19;20112;-82
2022/09/25 11:27:42;;;;;;;17.70;11.82;;;;;;;16.00;100.00;99383.50;12221839;19;20002;-82
2022/09/25 11:31:51;;;;;;;21.05;14.05;;;;;;;15.74;100.00;99384.97;12195974;19;20078;-80
2022/09/25 11:36:04;;;;;;;27.95;15.35;;;;;;;15.36;100.00;99391.13;12224702;19;20034;-79
2022/09/25 11:45:14;;;;;;;33.72;18.75;;;;;;;14.89;100.00;99392.59;12202789;19;20352;-79
2022/09/25 11:49:24;;;;;;;37.45;18.70;;;;;;;14.76;100.00;99385.78;12221242;19;20038;-80
2022/09/25 11:53:42;;;;;;;35.63;20.00;;;;;;;14.61;100.00;99396.16;12203234;19;20352;-82
2022/09/25 11:58:06;;;;;;;33.20;19.02;;;;;;;14.54;100.00;99399.22;12221452;19;20763;-80
2022/09/25 12:02:45;;;;;;;40.67;19.30;;;;;;;14.57;100.00;99391.19;12216524;19;20548;-81
2022/09/25 12:07:05;;;;;;;38.38;19.83;;;;;;;14.67;100.00;99395.00;12229923;19;20019;-80
2022/09/25 12:11:21;;;;;;;32.85;17.80;;;;;;;14.82;100.00;99384.63;12207440;19;20015;-80
2022/09/25 12:15:34;;;;;;;28.52;16.92;;;;;;;14.93;100.00;99382.63;12227421;19;21035;-80
2022/09/25 12:20:01;;;;;;;26.00;14.82;;;;;;;15.03;100.00;99381.69;12232696;19;20021;-79
2022/09/25 12:24:39;;;;;;;24.52;13.82;;;;;;;15.16;100.00;99380.19;12211267;19;20007;-79
2022/09/25 12:29:03;;;;;;;19.73;12.68;;;;;;;15.06;100.00;99380.28;12209606;19;20018;-83
2022/09/25 12:33:22;;;;;;;23.35;13.00;;;;;;;14.96;100.00;99392.28;12231592;19;20659;-82
2022/09/25 12:37:29;;;;;;;17.35;10.85;;;;;;;14.82;100.00;99387.41;12229977;19;20485;-79
2022/09/25 12:41:46;;;;;;;14.88;9.88;;;;;;;14.93;100.00;99388.16;12209474;19;20002;-80
2022/09/25 12:45:59;;;;;;;18.02;9.75;;;;;;;15.07;100.00;99387.50;12230066;19;20014;-79
2022/09/25 12:50:12;;;;;;;10.00;6.75;;;;;;;14.97;100.00;99389.22;12209824;19;20023;-79
2022/09/25 12:54:31;;;;;;;13.13;6.82;;;;;;;15.08;100.00;99383.59;12231557;19;20011;-81
2022/09/25 12:58:43;;;;;;;8.65;5.18;;;;;;;15.12;100.00;99390.22;12230003;19;20463;-81
2022/09/25 13:03:22;;;;;;;9.57;5.32;;;;;;;15.12;100.00;99381.91;12209521;19;20014;-80
2022/09/25 13:07:38;;;;;;;8.85;4.55;;;;;;;15.36;100.00;99382.78;12232297;19;20015;-80
2022/09/25 13:11:49;;;;;;;9.52;5.03;;;;;;;15.58;100.00;99367.56;12209161;19;20023;-80
2022/09/25 13:15:58;;;;;;;6.38;4.28;;;;;;;15.77;100.00;99374.06;12231983;19;20459;-80
2022/09/25 13:20:27;;;;;;;8.23;3.97;;;;;;;15.94;100.00;99374.44;12211755;19;20382;-80
2022/09/25 13:24:38;;;;;;;5.20;3.45;;;;;;;16.02;100.00;99375.72;12234664;19;20003;-80
2022/09/25 13:28:49;;;;;;;8.20;4.13;;;;;;;16.01;100.00;99374.06;12219310;19;20010;-80
2022/09/25 13:32:53;;;;;;;8.10;4.45;;;;;;;16.02;100.00;99377.69;12235106;19;20369;-81
2022/09/25 13:36:56;;;;;;;9.40;4.15;;;;;;;15.85;100.00;99376.19;12236939;19;20077;-79
2022/09/25 13:40:57;;;;;;;9.52;3.67;;;;;;;15.67;100.00;99383.31;12220106;19;20010;-78
2022/09/25 13:45:20;;;;;;;10.95;4.05;;;;;;;15.58;100.00;99382.28;12238958;19;20015;-80
2022/09/25 13:49:33;;;;;;;11.70;4.10;;;;;;;15.31;100.00;99382.81;12244309;19;20011;-80
2022/09/25 13:53:58;;;;;;;9.48;4.60;;;;;;;15.14;100.00;99387.97;12220116;19;20014;-80
2022/09/25 13:58:02;;;;;;;8.80;3.65;;;;;;;15.08;100.00;99395.53;12244042;19;20033;-79
2022/09/25 14:02:33;;;;;;;8.25;4.25;;;;;;;14.90;100.00;99394.28;12224305;19;20130;-79
2022/09/25 14:06:37;;;;;;;7.35;3.25;;;;;;;14.76;100.00;99394.09;12244959;19;20010;-78
2022/09/25 14:11:03;;;;;;;7.03;3.30;;;;;;;14.72;100.00;99392.16;12224510;19;20038;-79
2022/09/25 14:15:12;;;;;;;8.40;3.22;;;;;;;14.80;100.00;99383.25;12235953;19;20037;-79
2022/09/25 14:19:19;;;;;;;12.82;3.30;;;;;;;14.91;100.00;99384.84;12233460;19;20006;-79
2022/09/25 14:23:25;;;;;;;8.98;3.50;;;;;;;14.97;100.00;99388.41;12214370;19;20010;-78
2022/09/25 14:27:27;;;;;;;6.60;3.38;;;;;;;15.01;100.00;99379.19;12233881;19;20502;-77
2022/09/25 14:31:31;;;;;;;8.23;3.00;;;;;;;15.02;100.00;99383.66;12213276;19;20456;-79
2022/09/25 14:36:03;;;;;;;13.30;4.00;;;;;;;14.99;100.00;99387.00;12192862;19;20010;-79
2022/09/25 14:40:17;;;;;;;9.43;3.40;;;;;;;14.69;100.00;99376.94;12216216;19;20022;-76
2022/09/25 14:44:26;;;;;;;11.77;3.90;;;;;;;14.53;100.00;99381.75;12199105;19;20018;-78
2022/09/25 14:48:36;;;;;;;6.55;3.38;;;;;;;14.46;100.00;99381.22;12256163;19;20006;-76
2022/09/25 14:52:38;;;;;;;10.13;3.63;;;;;;;14.46;100.00;99375.69;12255694;19;20050;-75
2022/09/25 14:56:48;;;;;;;6.70;3.87;;;;;;;14.45;100.00;99376.78;12237001;19;20058;-74
2022/09/25 15:01:07;;;;;;;7.22;3.63;;;;;;;14.51;100.00;99359.03;12244955;19;20025;-79
2022/09/25 15:05:22;;;;;;;7.38;3.30;;;;;;;14.71;100.00;99362.78;12198225;19;20494;-77
2022/09/25 15:09:34;;;;;;;9.32;3.65;;;;;;;14.77;100.00;99367.19;12216147;19;20091;-78
2022/09/25 15:13:38;;;;;;;;;;;;;;;14.62;100.00;99367.28;12216028;19;20014;-79
2022/09/25 15:17:49;;;;;;;11.52;3.08;;;;;;;14.71;100.00;99362.78;12188574;19;19915;-80
2022/09/25 15:21:52;;;;;;;5.72;2.47;;;;;;;14.68;100.00;99366.97;12212788;19;20014;-78
2022/09/25 15:25:55;;;;;;;7.18;2.70;;;;;;;14.71;100.00;99362.78;12192933;19;20028;-80
2022/09/25 15:29:59;;;;;;;;;;;;;;;14.76;100.00;99360.81;12213335;19;20014;-77
2022/09/25 15:34:02;;;;;;;;;;;;;;;14.67;100.00;99364.50;12216279;19;19911;-77
2022/09/25 15:38:11;;;;;;;7.05;3.05;;;;;;;14.65;100.00;99366.72;12199233;19;19935;-78
2022/09/25 15:42:13;;;;;;;6.53;3.33;;;;;;;14.55;100.00;99367.63;12221587;19;20865;-77
2022/09/25 15:46:36;;;;;;;4.72;2.20;;;;;;;14.51;100.00;99369.25;12218832;19;23148;-78
2022/09/25 15:50:42;;;;;;;5.67;2.33;;;;;;;14.40;100.00;99365.75;12201537;19;20009;-79
2022/09/25 15:54:45;;;;;;;6.03;3.05;;;;;;;14.26;100.00;99370.25;12220107;19;20728;-77
2022/09/25 15:58:51;;;;;;;6.35;2.70;;;;;;;14.17;100.00;99375.53;12200579;19;20007;-78
2022/09/25 16:07:33;;;;;;;18.08;10.43;;;;;;;14.16;100.00;99373.03;12219384;19;20017;-79
2022/09/25 16:11:35;;;;;;;14.13;11.55;;;;;;;14.21;100.00;99375.81;12199790;19;20002;-78
2022/09/25 16:15:46;;;;;;;7.13;6.43;;;;;;;14.14;100.00;99368.63;12221408;19;20015;-78
2022/09/25 16:19:59;;;;;;;9.93;4.43;;;;;;;14.14;100.00;99367.81;12200398;19;20651;-78
2022/09/25 16:24:06;;;;;;;13.68;9.18;;;;;;;14.08;100.00;99367.00;12221725;19;20014;-77
2022/09/25 16:28:26;;;;;;;11.25;5.00;;;;;;;14.03;100.00;99378.09;12216631;19;20007;-77
2022/09/25 16:32:28;;;;;;;8.63;3.38;;;;;;;13.99;100.00;99367.88;12197402;19;20094;-78
2022/09/25 16:36:42;;;;;;;6.47;2.80;;;;;;;13.89;100.00;99377.88;12217337;19;20021;-77
2022/09/25 16:41:20;;;;;;;7.13;2.92;;;;;;;13.80;100.00;99374.03;12197625;19;20010;-78
2022/09/25 16:45:28;;;;;;;5.55;2.53;;;;;;;13.75;100.00;99374.03;12217289;19;20011;-77
2022/09/25 16:49:32;;;;;;;7.10;2.78;;;;;;;13.71;100.00;99372.09;12214589;19;20015;-79
2022/09/25 16:53:34;;;;;;;4.00;2.45;;;;;;;13.63;100.00;99366.03;12197274;19;20023;-77
2022/09/25 16:57:37;;;;;;;6.82;2.50;;;;;;;13.63;100.00;99365.22;12217618;19;20038;-77
2022/09/25 17:01:46;;;;;;;7.22;2.95;;;;;;;13.57;100.00;99372.72;12197902;19;20025;-79
2022/09/25 17:05:48;;;;;;;6.60;2.83;;;;;;;13.50;100.00;99372.16;12218600;19;20463;-77
2022/09/25 17:09:50;;;;;;;5.72;3.10;;;;;;;13.44;100.00;99373.28;12216624;19;20784;-77
2022/09/25 17:13:52;;;;;;;5.50;2.97;;;;;;;13.39;100.00;99387.13;12195295;19;20137;-77
2022/09/25 17:17:53;;;;;;;6.97;3.33;;;;;;;13.34;100.00;99381.59;12215783;19;20011;-79
2022/09/25 17:21:55;;;;;;;8.82;3.50;;;;;;;13.29;100.00;99381.59;12214001;19;20011;-78
2022/09/25 17:26:12;;;;;;;6.55;3.10;;;;;;;13.22;100.00;99382.69;12198374;19;20042;-77
2022/09/25 17:30:14;;;;;;;7.10;3.22;;;;;;;13.19;100.00;99387.94;12215370;19;20034;-78
2022/09/25 17:34:18;;;;;;;8.48;3.35;;;;;;;13.13;100.00;99384.34;12214722;19;20365;-79
2022/09/25 17:38:20;;;;;;;10.15;3.95;;;;;;;13.08;100.00;99386.28;12195865;19;20010;-78
2022/09/25 17:42:23;;;;;;;8.18;3.53;;;;;;;13.07;100.00;99390.16;12220010;19;20091;-79
2022/09/25 17:46:25;;;;;;;8.65;4.45;;;;;;;13.05;100.00;99386.84;12223806;19;20015;-77
2022/09/25 17:50:28;;;;;;;11.03;5.17;;;;;;;13.04;100.00;99390.72;12199496;19;20102;-77
2022/09/25 17:54:30;;;;;;;10.27;5.25;;;;;;;13.05;100.00;99400.66;12215324;19;20114;-80
2022/09/25 17:58:32;;;;;;;10.45;4.85;;;;;;;13.03;100.00;99398.19;12216315;19;20010;-78
2022/09/25 18:02:33;;;;;;;7.30;4.25;;;;;;;13.03;100.00;99406.50;12196181;19;20011;-79
2022/09/25 18:06:35;;;;;;;8.95;4.45;;;;;;;13.01;100.00;99408.69;12223402;19;20006;-78
2022/09/25 18:10:37;;;;;;;10.50;5.03;;;;;;;13.00;100.00;99407.88;12224505;19;20034;-78
2022/09/25 18:14:39;;;;;;;8.53;4.57;;;;;;;12.98;100.00;99410.06;12200684;19;20007;-79
2022/09/25 18:23:03;;;;;;;10.60;5.90;;;;;;;12.97;100.00;99413.13;12194266;19;20034;-78
2022/09/25 18:27:05;;;;;;;10.30;6.18;;;;;;;12.96;100.00;99409.50;12218822;19;20022;-77
2022/09/25 18:31:07;;;;;;;13.77;5.73;;;;;;;12.93;100.00;99409.22;12218161;19;20708;-78
2022/09/25 18:35:12;;;;;;;9.48;5.47;;;;;;;12.91;100.00;99419.72;12193840;19;20006;-77
2022/09/25 18:39:14;;;;;;;12.65;6.32;;;;;;;12.90;100.00;99418.06;12213359;19;20015;-78
2022/09/25 18:43:20;;;;;;;13.65;5.40;;;;;;;12.91;100.00;99408.66;12218398;19;20014;-78
2022/09/25 18:47:22;;;;;;;8.25;4.82;;;;;;;12.88;100.00;99415.59;12194120;19;20007;-76
2022/09/25 18:51:24;;;;;;;11.32;5.35;;;;;;;12.88;100.00;99411.97;12245891;19;20032;-76
2022/09/25 18:55:26;;;;;;;12.05;5.53;;;;;;;12.87;100.00;99402.03;12234559;19;20003;-79
2022/09/25 18:59:28;;;;;;;9.20;5.70;;;;;;;12.85;100.00;99401.47;12199164;19;20015;-79
2022/09/25 19:03:29;;;;;;;10.93;5.57;;;;;;;12.83;100.00;99400.94;12220485;19;20003;-79
2022/09/25 19:07:31;;;;;;;12.80;5.28;;;;;;;12.77;100.00;99400.91;12220135;19;20011;-78
2022/09/25 19:11:33;;;;;;;12.98;5.63;;;;;;;12.76;100.00;99399.28;12197901;19;20006;-78
2022/09/25 19:15:34;;;;;;;10.80;4.93;;;;;;;12.74;100.00;99400.66;12219357;19;20007;-79